createdAt,value
2023-03-25T00:01:45.602Z,21.70
2023-03-25T00:04:12.167Z,17.07
2023-03-25T00:06:39.219Z,20.10
2023-03-25T00:09:05.634Z,13.30
2023-03-25T00:11:32.111Z,21.23
2023-03-25T00:13:58.546Z,12.87
2023-03-25T00:16:24.961Z,12.47
2023-03-25T00:18:51.334Z,13.60
2023-03-25T00:21:18.997Z,15.20
2023-03-25T00:23:46.493Z,13.57
2023-03-25T00:26:13.052Z,13.33
2023-03-25T00:28:39.637Z,18.07
2023-03-25T00:31:11.394Z,24.10
2023-03-25T00:33:41.633Z,16.07
2023-03-25T00:36:08.247Z,16.80
2023-03-25T00:38:37.891Z,15.73
2023-03-25T00:41:13.560Z,11.77
2023-03-25T00:43:40.874Z,10.47
2023-03-25T00:46:09.305Z,12.60
2023-03-25T00:48:37.488Z,12.23
2023-03-25T00:51:09.046Z,13.23
2023-03-25T00:53:37.079Z,16.40
2023-03-25T00:56:07.659Z,11.47
2023-03-25T00:58:36.989Z,19.97
2023-03-25T01:01:23.966Z,15.13
2023-03-25T01:03:58.086Z,17.03
2023-03-25T01:06:28.908Z,17.63
2023-03-25T01:08:56.563Z,16.63
2023-03-25T01:11:24.724Z,11.33
2023-03-25T01:13:51.473Z,15.63
2023-03-25T01:16:17.854Z,14.80
2023-03-25T01:18:44.875Z,13.53
2023-03-25T01:21:11.188Z,26.73
2023-03-25T01:23:37.563Z,14.90
2023-03-25T01:26:03.987Z,12.70
2023-03-25T01:28:30.495Z,14.07
2023-03-25T01:31:04.252Z,18.23
2023-03-25T01:33:30.930Z,17.23
2023-03-25T01:35:57.349Z,18.50
2023-03-25T01:38:23.774Z,15.50
2023-03-25T01:40:51.559Z,12.40
2023-03-25T01:43:19.434Z,17.73
2023-03-25T01:45:46.317Z,18.90
2023-03-25T01:48:17.991Z,22.30
2023-03-25T01:50:47.131Z,24.37
2023-03-25T01:53:13.705Z,12.63
2023-03-25T01:55:40.284Z,23.47
2023-03-25T01:58:11.873Z,12.47
2023-03-25T02:00:40.318Z,14.70
2023-03-25T02:03:09.234Z,24.07
2023-03-25T02:05:56.568Z,8.77
2023-03-25T02:08:24.031Z,10.80
2023-03-25T02:10:50.674Z,18.23
2023-03-25T02:13:17.024Z,22.90
2023-03-25T02:16:01.465Z,17.13
2023-03-25T02:18:44.711Z,18.93
2023-03-25T02:21:11.310Z,19.83
2023-03-25T02:23:48.008Z,16.03
2023-03-25T02:26:14.435Z,24.77
2023-03-25T02:28:50.404Z,18.17
2023-03-25T02:31:35.537Z,13.10
2023-03-25T02:34:07.989Z,24.60
2023-03-25T02:36:42.403Z,27.00
2023-03-25T02:39:12.978Z,24.30
2023-03-25T02:41:39.450Z,25.67
2023-03-25T02:44:26.200Z,19.23
2023-03-25T02:46:55.355Z,21.93
2023-03-25T02:49:25.731Z,19.07
2023-03-25T02:52:11.196Z,23.97
2023-03-25T02:54:41.459Z,27.30
2023-03-25T02:57:09.476Z,23.43
2023-03-25T02:59:38.272Z,24.77
2023-03-25T03:02:08.024Z,44.10
2023-03-25T03:04:51.005Z,18.40
2023-03-25T03:07:25.087Z,20.10
2023-03-25T03:09:54.035Z,26.93
2023-03-25T03:12:37.537Z,14.37
2023-03-25T03:15:06.886Z,31.07
2023-03-25T03:17:33.239Z,22.23
2023-03-25T03:20:02.507Z,28.90
2023-03-25T03:22:41.174Z,23.27
2023-03-25T03:25:20.312Z,24.23
2023-03-25T03:27:55.278Z,25.57
2023-03-25T03:30:54.408Z,19.23
2023-03-25T03:33:25.538Z,23.73
2023-03-25T03:35:57.590Z,17.93
2023-03-25T03:38:29.296Z,31.97
2023-03-25T03:41:01.978Z,23.93
2023-03-25T03:43:31.354Z,11.87
2023-03-25T03:46:05.554Z,18.50
2023-03-25T03:48:42.494Z,21.20
2023-03-25T03:51:14.903Z,23.03
2023-03-25T03:53:43.219Z,26.40
2023-03-25T03:56:19.247Z,17.83
2023-03-25T03:58:47.016Z,22.47
2023-03-25T04:01:16.829Z,23.97
2023-03-25T04:03:50.716Z,20.67
2023-03-25T04:06:24.816Z,19.80
2023-03-25T04:08:58.969Z,27.90
2023-03-25T04:11:33.202Z,17.83
2023-03-25T04:14:00.842Z,14.53
2023-03-25T04:16:28.541Z,21.23
2023-03-25T04:18:55.172Z,13.37
2023-03-25T04:21:21.799Z,26.23
2023-03-25T04:23:49.894Z,19.40
2023-03-25T04:26:16.248Z,27.40
2023-03-25T04:28:44.602Z,23.30
2023-03-25T04:31:15.746Z,26.30
2023-03-25T04:33:46.726Z,24.30
2023-03-25T04:36:14.104Z,15.63
2023-03-25T04:38:41.507Z,19.07
2023-03-25T04:41:10.717Z,14.33
2023-03-25T04:43:39.310Z,23.90
2023-03-25T04:46:06.539Z,16.97
2023-03-25T04:48:34.918Z,16.50
2023-03-25T04:51:03.420Z,19.40
2023-03-25T04:53:30.008Z,18.07
2023-03-25T04:55:56.413Z,19.93
2023-03-25T04:58:22.740Z,23.17
2023-03-25T05:00:50.563Z,25.80
2023-03-25T05:03:17.637Z,21.07
2023-03-25T05:05:43.950Z,20.17
2023-03-25T05:08:11.576Z,13.03
2023-03-25T05:10:38.864Z,18.53
2023-03-25T05:13:06.537Z,24.00
2023-03-25T05:15:35.600Z,28.43
2023-03-25T05:18:04.909Z,19.30
2023-03-25T05:20:33.005Z,19.23
2023-03-25T05:22:59.337Z,30.27
2023-03-25T05:25:25.761Z,17.63
2023-03-25T05:27:52.120Z,15.77
2023-03-25T05:30:19.181Z,18.60
2023-03-25T05:32:50.729Z,16.97
2023-03-25T05:35:22.713Z,17.40
2023-03-25T05:37:50.336Z,19.73
2023-03-25T05:40:16.657Z,13.43
2023-03-25T05:42:47.070Z,19.27
2023-03-25T05:45:13.632Z,18.47
2023-03-25T05:47:40.247Z,24.40
2023-03-25T05:50:08.251Z,14.83
2023-03-25T05:52:34.594Z,17.87
2023-03-25T05:55:01.005Z,11.83
2023-03-25T05:57:27.505Z,19.87
2023-03-25T05:59:53.929Z,18.47
2023-03-25T06:02:20.618Z,19.60
2023-03-25T06:04:50.384Z,19.97
2023-03-25T06:07:22.882Z,17.10
2023-03-25T06:09:49.567Z,21.90
2023-03-25T06:12:16.814Z,20.13
2023-03-25T06:14:45.935Z,21.00
2023-03-25T06:17:12.751Z,20.87
2023-03-25T06:19:39.135Z,21.67
2023-03-25T06:22:06.786Z,11.93
2023-03-25T06:24:33.164Z,21.47
2023-03-25T06:26:59.555Z,16.47
2023-03-25T06:29:26.340Z,14.30
2023-03-25T06:31:52.723Z,18.73
2023-03-25T06:34:19.107Z,18.93
2023-03-25T06:36:45.663Z,23.90
2023-03-25T06:39:12.059Z,22.87
2023-03-25T06:41:38.543Z,11.67
2023-03-25T06:44:05.398Z,26.10
2023-03-25T06:46:31.888Z,22.20
2023-03-25T06:48:58.305Z,19.10
2023-03-25T06:51:24.789Z,12.80
2023-03-25T06:53:51.249Z,22.43
2023-03-25T06:56:18.580Z,16.03
2023-03-25T06:58:45.461Z,21.33
2023-03-25T07:01:11.795Z,22.03
2023-03-25T07:03:38.626Z,22.60
2023-03-25T07:06:05.786Z,22.87
2023-03-25T07:08:32.329Z,20.10
2023-03-25T07:11:06.122Z,18.07
2023-03-25T07:13:38.466Z,15.60
2023-03-25T07:16:05.147Z,25.17
2023-03-25T07:18:31.873Z,9.07
2023-03-25T07:20:58.384Z,15.17
2023-03-25T07:23:25.477Z,14.80
2023-03-25T07:25:52.250Z,11.80
2023-03-25T07:28:19.217Z,17.80
2023-03-25T07:30:45.754Z,15.93
2023-03-25T07:33:12.095Z,16.27
2023-03-25T07:35:38.549Z,17.70
2023-03-25T07:38:05.047Z,14.83
2023-03-25T07:40:31.420Z,17.33
2023-03-25T07:42:57.901Z,15.70
2023-03-25T07:45:24.273Z,17.13
2023-03-25T07:47:51.197Z,23.57
2023-03-25T07:50:18.066Z,11.90
2023-03-25T07:52:44.428Z,14.60
2023-03-25T07:55:10.972Z,17.83
2023-03-25T07:57:37.326Z,17.77
2023-03-25T08:00:05.402Z,14.97
2023-03-25T08:02:31.884Z,13.80
2023-03-25T08:04:58.308Z,22.67
2023-03-25T08:07:24.656Z,22.27
2023-03-25T08:09:53.720Z,18.10
2023-03-25T08:12:20.803Z,17.87
2023-03-25T08:14:47.235Z,16.03
2023-03-25T08:17:13.649Z,15.20
2023-03-25T08:19:39.972Z,14.80
2023-03-25T08:22:06.540Z,17.30
2023-03-25T08:24:32.910Z,16.83
2023-03-25T08:27:14.839Z,6.40
2023-03-25T08:29:43.012Z,20.23
2023-03-25T08:32:09.502Z,24.53
2023-03-25T08:34:39.590Z,14.50
2023-03-25T08:37:07.429Z,17.37
2023-03-25T08:39:39.485Z,14.87
2023-03-25T08:42:06.643Z,14.13
2023-03-25T08:44:33.193Z,25.03
2023-03-25T08:46:59.615Z,16.90
2023-03-25T08:49:26.155Z,23.47
2023-03-25T08:51:52.577Z,23.33
2023-03-25T08:54:18.963Z,13.60
2023-03-25T08:56:45.295Z,14.97
2023-03-25T08:59:12.936Z,8.27
2023-03-25T09:01:40.168Z,21.07
2023-03-25T09:04:07.595Z,23.90
2023-03-25T09:06:47.521Z,20.37
2023-03-25T09:09:20.362Z,18.10
2023-03-25T09:11:46.717Z,22.93
2023-03-25T09:14:13.177Z,14.00
2023-03-25T09:16:39.597Z,25.33
2023-03-25T09:19:06.000Z,13.87
2023-03-25T09:21:32.421Z,20.03
2023-03-25T09:23:58.740Z,11.43
2023-03-25T09:26:26.206Z,23.40
2023-03-25T09:28:52.793Z,19.10
2023-03-25T09:31:19.182Z,20.80
2023-03-25T09:33:45.716Z,19.40
2023-03-25T09:36:13.087Z,15.97
2023-03-25T09:38:39.392Z,26.97
2023-03-25T09:41:20.675Z,17.83
2023-03-25T09:44:03.070Z,22.27
2023-03-25T09:46:29.591Z,17.87
2023-03-25T09:48:56.459Z,17.60
2023-03-25T09:51:31.260Z,16.43
2023-03-25T09:54:04.293Z,21.63
2023-03-25T09:56:33.498Z,21.80
2023-03-25T09:59:19.402Z,10.57
2023-03-25T10:02:09.664Z,23.67
2023-03-25T10:04:52.623Z,32.97
2023-03-25T10:07:37.518Z,22.20
2023-03-25T10:10:07.017Z,17.57
2023-03-25T10:12:38.995Z,20.93
2023-03-25T10:15:11.232Z,18.10
2023-03-25T10:17:44.564Z,24.83
2023-03-25T10:20:15.548Z,14.20
2023-03-25T10:23:05.195Z,16.67
2023-03-25T10:25:34.684Z,23.60
2023-03-25T10:28:01.463Z,18.97
2023-03-25T10:30:32.385Z,26.60
2023-03-25T10:33:00.569Z,21.63
2023-03-25T10:35:38.107Z,18.73
2023-03-25T10:38:24.271Z,24.20
2023-03-25T10:40:53.292Z,22.70
2023-03-25T10:43:34.218Z,33.17
2023-03-25T10:46:11.201Z,29.40
2023-03-25T10:48:37.941Z,27.53
2023-03-25T10:51:16.760Z,19.97
2023-03-25T10:53:45.291Z,26.67
2023-03-25T10:56:16.887Z,18.63
2023-03-25T10:58:45.740Z,22.43
2023-03-25T11:01:20.392Z,30.30
2023-03-25T11:03:51.587Z,21.03
2023-03-25T11:06:23.437Z,24.77
2023-03-25T11:08:57.323Z,24.17
2023-03-25T11:11:32.198Z,24.57
2023-03-25T11:13:58.534Z,19.30
2023-03-25T11:16:25.539Z,16.63
2023-03-25T11:18:53.059Z,17.90
2023-03-25T11:21:21.106Z,20.37
2023-03-25T11:23:48.628Z,26.60
2023-03-25T11:26:26.634Z,16.60
2023-03-25T11:28:57.089Z,23.73
2023-03-25T11:31:27.416Z,30.17
2023-03-25T11:34:04.217Z,26.57
2023-03-25T11:36:31.806Z,20.23
2023-03-25T11:39:02.089Z,28.30
2023-03-25T11:41:30.494Z,22.80
2023-03-25T11:43:57.086Z,28.57
2023-03-25T11:46:24.176Z,20.47
2023-03-25T11:48:50.608Z,21.93
2023-03-25T11:51:25.509Z,18.63
2023-03-25T11:53:56.389Z,23.60
2023-03-25T11:56:24.234Z,25.53
2023-03-25T11:58:52.045Z,25.87
2023-03-25T12:01:21.347Z,20.77
2023-03-25T12:03:48.110Z,19.10
2023-03-25T12:06:21.910Z,21.00
2023-03-25T12:08:53.243Z,26.67
2023-03-25T12:11:28.900Z,15.73
2023-03-25T12:14:13.721Z,15.87
2023-03-25T12:16:48.309Z,22.60
2023-03-25T12:19:15.050Z,16.93
2023-03-25T12:21:45.565Z,21.87
2023-03-25T12:24:11.904Z,14.17
2023-03-25T12:27:07.493Z,24.63
2023-03-25T12:29:42.540Z,15.90
2023-03-25T12:32:13.586Z,30.47
2023-03-25T12:34:53.605Z,22.03
2023-03-25T12:37:20.038Z,18.87
2023-03-25T12:40:09.382Z,20.83
2023-03-25T12:42:41.258Z,24.10
2023-03-25T12:45:31.468Z,12.37
2023-03-25T12:48:06.820Z,19.83
2023-03-25T12:50:36.467Z,17.43
2023-03-25T12:53:18.222Z,12.97
2023-03-25T12:55:51.703Z,18.53
2023-03-25T12:58:21.182Z,18.47
2023-03-25T13:00:56.777Z,20.43
2023-03-25T13:03:31.966Z,24.87
2023-03-25T13:05:58.431Z,18.33
2023-03-25T13:08:30.722Z,11.57
2023-03-25T13:11:00.676Z,13.97
2023-03-25T13:13:29.575Z,12.60
2023-03-25T13:16:02.424Z,14.80
2023-03-25T13:18:35.365Z,17.70
2023-03-25T13:21:15.583Z,19.53
2023-03-25T13:23:43.421Z,9.33
2023-03-25T13:26:11.854Z,15.63
2023-03-25T13:28:40.808Z,8.70
2023-03-25T13:31:08.969Z,14.00
2023-03-25T13:33:40.777Z,15.57
2023-03-25T13:36:30.748Z,6.40
2023-03-25T13:38:59.247Z,6.80
2023-03-25T13:41:31.351Z,10.90
2023-03-25T13:44:02.802Z,11.30
2023-03-25T13:46:35.513Z,14.50
2023-03-25T13:49:15.900Z,7.53
2023-03-25T13:51:42.393Z,10.07
2023-03-25T13:54:18.907Z,15.03
2023-03-25T13:56:58.231Z,11.97
2023-03-25T13:59:44.013Z,15.53
2023-03-25T14:02:29.011Z,11.73
2023-03-25T14:05:13.964Z,17.17
2023-03-25T14:07:58.897Z,14.70
2023-03-25T14:10:29.833Z,16.97
2023-03-25T14:12:58.534Z,17.73
2023-03-25T14:15:38.620Z,13.17
2023-03-25T14:18:05.553Z,9.10
2023-03-25T14:20:41.477Z,9.43
2023-03-25T14:23:12.536Z,12.20
2023-03-25T14:25:50.034Z,9.97
2023-03-25T14:28:18.398Z,13.40
2023-03-25T14:31:05.795Z,11.77
2023-03-25T14:33:52.152Z,9.97
2023-03-25T14:36:18.458Z,7.90
2023-03-25T14:38:54.650Z,11.63
2023-03-25T14:41:41.169Z,3.87
2023-03-25T14:44:18.102Z,4.70
2023-03-25T14:46:46.429Z,2.60
2023-03-25T14:49:22.322Z,1.20
2023-03-25T14:51:54.007Z,6.77
2023-03-25T14:54:23.073Z,5.37
2023-03-25T14:56:54.952Z,4.50
2023-03-25T14:59:24.181Z,6.03
2023-03-25T15:01:51.335Z,5.83
2023-03-25T15:04:23.833Z,9.00
2023-03-25T15:06:50.509Z,11.50
2023-03-25T15:09:17.797Z,6.63
2023-03-25T15:11:45.557Z,8.87
2023-03-25T15:14:15.212Z,5.43
2023-03-25T15:16:44.310Z,9.80
2023-03-25T15:19:14.661Z,8.23
2023-03-25T15:22:01.031Z,5.63
2023-03-25T15:24:31.830Z,10.33
2023-03-25T15:26:59.338Z,12.87
2023-03-25T15:29:44.739Z,10.80
2023-03-25T15:32:38.263Z,8.80
2023-03-25T15:35:27.025Z,10.73
2023-03-25T15:38:13.650Z,11.57
2023-03-25T15:41:00.492Z,9.60
2023-03-25T15:43:26.835Z,14.50
2023-03-25T15:46:11.711Z,14.10
2023-03-25T15:48:45.659Z,12.13
2023-03-25T15:51:27.345Z,12.63
2023-03-25T15:54:13.925Z,10.17
2023-03-25T15:56:45.416Z,8.90
2023-03-25T15:59:17.974Z,4.00
2023-03-25T16:01:47.312Z,9.07
2023-03-25T16:04:19.340Z,9.90
2023-03-25T16:06:48.130Z,5.27
2023-03-25T16:09:19.355Z,9.33
2023-03-25T16:11:46.236Z,6.37
2023-03-25T16:14:14.034Z,10.20
2023-03-25T16:16:44.336Z,7.97
2023-03-25T16:19:16.731Z,7.83
2023-03-25T16:21:43.142Z,20.73
2023-03-25T16:24:12.622Z,7.97
2023-03-25T16:26:42.405Z,16.17
2023-03-25T16:29:10.343Z,9.93
2023-03-25T16:31:42.688Z,20.07
2023-03-25T16:34:13.655Z,11.97
2023-03-25T16:36:41.507Z,13.07
2023-03-25T16:39:11.739Z,13.07
2023-03-25T16:41:38.127Z,13.00
2023-03-25T16:44:04.863Z,16.70
2023-03-25T16:46:32.944Z,13.53
2023-03-25T16:48:59.830Z,18.97
2023-03-25T16:51:32.121Z,11.73
2023-03-25T16:54:01.671Z,17.40
2023-03-25T16:56:29.710Z,17.37
2023-03-25T16:59:02.592Z,22.63
2023-03-25T17:01:32.163Z,15.80
2023-03-25T17:04:17.794Z,13.97
2023-03-25T17:06:45.781Z,16.20
2023-03-25T17:09:16.857Z,17.87
2023-03-25T17:11:44.372Z,18.67
2023-03-25T17:14:15.585Z,10.53
2023-03-25T17:16:42.189Z,6.83
2023-03-25T17:19:12.612Z,12.23
2023-03-25T17:21:57.640Z,9.57
2023-03-25T17:24:24.384Z,5.47
2023-03-25T17:27:05.340Z,4.83
2023-03-25T17:29:31.728Z,9.53
2023-03-25T17:31:59.191Z,7.97
2023-03-25T17:34:30.417Z,5.73
2023-03-25T17:36:57.958Z,7.33
2023-03-25T17:39:26.412Z,11.07
2023-03-25T17:42:01.861Z,5.40
2023-03-25T17:44:39.112Z,8.40
2023-03-25T17:47:06.398Z,11.77
2023-03-25T17:49:32.994Z,6.13
2023-03-25T17:51:59.356Z,9.47
2023-03-25T17:54:26.021Z,10.93
2023-03-25T17:56:52.903Z,13.67
2023-03-25T17:59:23.522Z,9.17
2023-03-25T18:01:50.058Z,9.83
2023-03-25T18:04:17.277Z,9.67
2023-03-25T18:06:43.612Z,13.53
2023-03-25T18:09:14.666Z,4.53
2023-03-25T18:11:40.996Z,10.73
2023-03-25T18:14:07.324Z,6.67
2023-03-25T18:16:33.753Z,6.93
2023-03-25T18:19:00.542Z,8.60
2023-03-25T18:21:26.879Z,8.07
2023-03-25T18:23:53.308Z,9.57
2023-03-25T18:26:19.791Z,10.67
2023-03-25T18:28:46.476Z,7.07
2023-03-25T18:31:16.947Z,3.73
2023-03-25T18:33:44.324Z,10.83
2023-03-25T18:36:13.062Z,9.00
2023-03-25T18:38:39.588Z,9.87
2023-03-25T18:41:06.691Z,9.70
2023-03-25T18:43:33.150Z,4.83
2023-03-25T18:45:59.499Z,9.50
2023-03-25T18:48:26.180Z,12.00
2023-03-25T18:50:54.524Z,5.53
2023-03-25T18:53:21.773Z,9.07
2023-03-25T18:55:48.177Z,5.63
2023-03-25T18:58:22.645Z,10.67
2023-03-25T19:00:51.047Z,13.53
2023-03-25T19:03:18.138Z,5.87
2023-03-25T19:05:44.717Z,5.87
2023-03-25T19:08:16.758Z,8.43
2023-03-25T19:10:43.376Z,10.97
2023-03-25T19:13:09.865Z,9.10
2023-03-25T19:15:36.464Z,5.73
2023-03-25T19:18:02.982Z,7.63
2023-03-25T19:20:34.878Z,8.90
2023-03-25T19:23:01.942Z,15.90
2023-03-25T19:25:29.555Z,10.83
2023-03-25T19:27:56.490Z,7.17
2023-03-25T19:30:23.643Z,14.60
2023-03-25T19:32:51.542Z,16.53
2023-03-25T19:35:19.073Z,7.93
2023-03-25T19:37:52.390Z,14.00
2023-03-25T19:40:20.330Z,9.17
2023-03-25T19:42:48.019Z,10.73
2023-03-25T19:45:15.148Z,20.10
2023-03-25T19:47:42.697Z,13.43
2023-03-25T19:50:10.976Z,10.27
2023-03-25T19:52:37.547Z,13.47
2023-03-25T19:55:04.727Z,11.33
2023-03-25T19:57:31.269Z,11.73
2023-03-25T19:59:57.846Z,5.00
2023-03-25T20:02:26.293Z,14.00
2023-03-25T20:04:53.169Z,9.80
2023-03-25T20:07:20.969Z,8.90
2023-03-25T20:09:47.328Z,7.47
2023-03-25T20:12:13.646Z,5.10
2023-03-25T20:14:40.114Z,12.10
2023-03-25T20:17:06.424Z,4.40
2023-03-25T20:19:33.730Z,7.30
2023-03-25T20:22:00.496Z,7.67
2023-03-25T20:24:26.876Z,10.23
2023-03-25T20:26:53.329Z,10.40
2023-03-25T20:29:19.894Z,8.57
2023-03-25T20:31:46.481Z,6.13
2023-03-25T20:34:12.920Z,7.20
2023-03-25T20:36:39.230Z,9.80
2023-03-25T20:39:05.910Z,15.23
2023-03-25T20:41:33.137Z,5.97
2023-03-25T20:43:59.877Z,5.10
2023-03-25T20:46:31.052Z,9.20
2023-03-25T20:48:57.983Z,5.57
2023-03-25T20:51:24.732Z,8.83
2023-03-25T20:53:51.984Z,8.63
2023-03-25T20:56:18.564Z,8.33
2023-03-25T20:58:44.909Z,7.10
2023-03-25T21:01:11.892Z,10.00
2023-03-25T21:03:38.331Z,6.00
2023-03-25T21:06:13.483Z,12.80
2023-03-25T21:08:49.076Z,9.37
2023-03-25T21:11:15.952Z,8.37
2023-03-25T21:13:42.580Z,5.27
2023-03-25T21:16:09.090Z,8.47
2023-03-25T21:18:36.770Z,7.20
2023-03-25T21:21:03.616Z,8.60
2023-03-25T21:23:31.982Z,7.17
2023-03-25T21:26:01.853Z,9.27
2023-03-25T21:28:29.195Z,7.00
2023-03-25T21:31:19.509Z,4.90
2023-03-25T21:33:46.206Z,13.97
2023-03-25T21:36:13.313Z,10.17
2023-03-25T21:38:40.856Z,7.53
2023-03-25T21:41:08.189Z,9.50
2023-03-25T21:43:35.723Z,10.17
2023-03-25T21:46:05.289Z,5.90
2023-03-25T21:48:32.471Z,9.17
2023-03-25T21:50:59.029Z,8.83
2023-03-25T21:53:31.068Z,9.60
2023-03-25T21:56:03.762Z,12.67
2023-03-25T21:58:31.615Z,7.73
2023-03-25T22:01:01.740Z,6.27
2023-03-25T22:03:35.377Z,8.53
2023-03-25T22:06:09.377Z,9.87
2023-03-25T22:08:36.518Z,11.20
2023-03-25T22:11:02.946Z,6.10
2023-03-25T22:13:29.424Z,7.80
2023-03-25T22:15:56.000Z,6.27
2023-03-25T22:18:22.903Z,5.43
2023-03-25T22:20:51.280Z,3.23
2023-03-25T22:23:17.732Z,4.97
2023-03-25T22:25:44.319Z,7.37
2023-03-25T22:28:10.770Z,5.50
2023-03-25T22:30:40.694Z,7.83
2023-03-25T22:33:07.354Z,6.93
2023-03-25T22:35:33.842Z,7.63
2023-03-25T22:38:00.198Z,3.63
2023-03-25T22:40:27.159Z,3.00
2023-03-25T22:42:53.602Z,10.00
2023-03-25T22:45:20.402Z,10.73
2023-03-25T22:47:47.250Z,6.40
2023-03-25T22:50:13.847Z,5.07
2023-03-25T22:52:41.340Z,4.87
2023-03-25T22:55:08.578Z,9.80
2023-03-25T22:57:35.421Z,10.63
2023-03-25T23:00:01.949Z,6.03
2023-03-25T23:02:28.430Z,4.57
2023-03-25T23:04:55.280Z,5.50
2023-03-25T23:07:21.708Z,4.37
2023-03-25T23:09:48.089Z,9.77
2023-03-25T23:12:15.661Z,9.20
2023-03-25T23:14:43.062Z,5.60
2023-03-25T23:17:10.434Z,3.60
2023-03-25T23:19:36.909Z,14.00
2023-03-25T23:22:03.418Z,7.80
2023-03-25T23:24:29.787Z,6.17
2023-03-25T23:26:56.545Z,8.60
2023-03-25T23:29:23.344Z,6.97
2023-03-25T23:31:49.880Z,6.60
2023-03-25T23:34:16.850Z,10.37
2023-03-25T23:36:43.326Z,7.70
2023-03-25T23:39:11.355Z,10.97
2023-03-25T23:41:37.960Z,12.83
2023-03-25T23:44:04.654Z,8.83
2023-03-25T23:46:31.316Z,9.53
2023-03-25T23:49:02.564Z,6.70
2023-03-25T23:51:35.128Z,6.60
2023-03-25T23:54:02.282Z,7.27
2023-03-25T23:56:29.456Z,4.07
2023-03-25T23:58:55.983Z,11.07
